createdAt,value
2023-08-02T00:01:22.909Z,45.52
2023-08-02T00:04:01.200Z,45.52
2023-08-02T00:06:35.551Z,45.44
2023-08-02T00:09:02.057Z,45.49
2023-08-02T00:11:28.510Z,45.67
2023-08-02T00:13:54.959Z,45.57
2023-08-02T00:16:21.469Z,45.51
2023-08-02T00:18:47.877Z,45.42
2023-08-02T00:21:14.286Z,45.61
2023-08-02T00:23:40.773Z,45.41
2023-08-02T00:26:07.227Z,45.53
2023-08-02T00:28:33.666Z,45.71
2023-08-02T00:31:00.154Z,45.74
2023-08-02T00:33:26.613Z,45.72
2023-08-02T00:35:55.209Z,45.73
2023-08-02T00:38:23.159Z,45.69
2023-08-02T00:40:50.182Z,45.86
2023-08-02T00:43:16.723Z,45.61
2023-08-02T00:45:43.233Z,45.78
2023-08-02T00:48:09.713Z,45.68
2023-08-02T00:50:37.127Z,45.68
2023-08-02T00:53:03.907Z,45.92
2023-08-02T00:55:30.370Z,45.81
2023-08-02T00:57:58.033Z,45.68
2023-08-02T01:00:24.533Z,45.59
2023-08-02T01:02:51.059Z,45.86
2023-08-02T01:05:18.554Z,45.48
2023-08-02T01:07:48.395Z,45.88
2023-08-02T01:10:26.462Z,45.64
2023-08-02T01:12:55.221Z,45.67
2023-08-02T01:15:21.879Z,45.54
2023-08-02T01:17:51.018Z,45.76
2023-08-02T01:20:17.458Z,45.82
2023-08-02T01:22:44.033Z,45.56
2023-08-02T01:25:10.712Z,45.66
2023-08-02T01:27:45.191Z,45.90
2023-08-02T01:30:15.271Z,45.73
2023-08-02T01:32:41.799Z,45.83
2023-08-02T01:35:09.728Z,45.69
2023-08-02T01:37:36.760Z,45.56
2023-08-02T01:40:04.082Z,45.66
2023-08-02T01:42:30.929Z,45.57
2023-08-02T01:44:57.379Z,45.55
2023-08-02T01:47:23.946Z,45.81
2023-08-02T01:49:50.908Z,45.75
2023-08-02T01:52:17.327Z,45.37
2023-08-02T01:54:43.772Z,45.64
2023-08-02T01:57:10.265Z,45.78
2023-08-02T01:59:37.113Z,45.78
2023-08-02T02:02:03.644Z,45.56
2023-08-02T02:04:30.072Z,45.75
2023-08-02T02:06:56.702Z,45.37
2023-08-02T02:09:23.148Z,45.60
2023-08-02T02:11:50.364Z,45.32
2023-08-02T02:14:16.775Z,45.63
2023-08-02T02:16:43.465Z,45.32
2023-08-02T02:19:10.069Z,45.71
2023-08-02T02:21:37.093Z,45.77
2023-08-02T02:24:03.739Z,45.66
2023-08-02T02:26:30.152Z,45.90
2023-08-02T02:28:56.576Z,45.87
2023-08-02T02:31:23.029Z,45.94
2023-08-02T02:33:49.440Z,45.66
2023-08-02T02:36:15.854Z,45.84
2023-08-02T02:38:42.277Z,45.92
2023-08-02T02:41:08.726Z,45.88
2023-08-02T02:43:35.134Z,45.86
2023-08-02T02:46:01.604Z,45.88
2023-08-02T02:48:28.052Z,45.78
2023-08-02T02:50:54.467Z,45.67
2023-08-02T02:53:21.960Z,45.91
2023-08-02T02:55:48.470Z,45.83
2023-08-02T02:58:14.853Z,45.87
2023-08-02T03:00:41.313Z,45.61
2023-08-02T03:03:07.763Z,45.71
2023-08-02T03:05:34.191Z,45.94
2023-08-02T03:08:00.723Z,45.70
2023-08-02T03:10:27.261Z,46.01
2023-08-02T03:12:53.702Z,45.95
2023-08-02T03:15:20.101Z,45.96
2023-08-02T03:17:46.557Z,45.85
2023-08-02T03:20:13.034Z,45.92
2023-08-02T03:22:39.483Z,45.96
2023-08-02T03:25:06.048Z,45.74
2023-08-02T03:27:32.448Z,46.08
2023-08-02T03:29:58.912Z,46.04
2023-08-02T03:32:25.380Z,46.03
2023-08-02T03:34:51.805Z,45.96
2023-08-02T03:37:18.388Z,46.01
2023-08-02T03:39:44.781Z,45.91
2023-08-02T03:42:11.258Z,46.05
2023-08-02T03:44:37.802Z,45.96
2023-08-02T03:47:04.316Z,45.88
2023-08-02T03:49:30.777Z,45.97
2023-08-02T03:51:57.250Z,45.65
2023-08-02T03:54:23.724Z,45.89
2023-08-02T03:56:50.224Z,46.02
2023-08-02T03:59:16.647Z,45.98
2023-08-02T04:01:43.079Z,45.86
2023-08-02T04:04:10.600Z,46.01
2023-08-02T04:06:37.233Z,45.87
2023-08-02T04:09:03.747Z,46.05
2023-08-02T04:11:30.139Z,45.82
2023-08-02T04:13:56.611Z,46.11
2023-08-02T04:16:23.095Z,46.12
2023-08-02T04:18:49.564Z,45.88
2023-08-02T04:21:22.114Z,45.96
2023-08-02T04:23:50.331Z,46.20
2023-08-02T04:26:17.127Z,45.95
2023-08-02T04:28:43.565Z,46.00
2023-08-02T04:31:10.096Z,46.11
2023-08-02T04:33:36.529Z,45.95
2023-08-02T04:36:03.099Z,46.20
2023-08-02T04:38:29.582Z,46.21
2023-08-02T04:40:57.104Z,46.00
2023-08-02T04:43:23.550Z,46.16
2023-08-02T04:45:50.008Z,45.93
2023-08-02T04:48:16.486Z,46.08
2023-08-02T04:50:44.288Z,45.97
2023-08-02T04:53:10.742Z,45.88
2023-08-02T04:55:46.768Z,46.19
2023-08-02T04:58:13.472Z,45.90
2023-08-02T05:00:39.906Z,46.22
2023-08-02T05:03:07.126Z,45.94
2023-08-02T05:05:33.725Z,46.27
2023-08-02T05:08:00.541Z,46.30
2023-08-02T05:10:26.990Z,46.06
2023-08-02T05:12:53.430Z,46.02
2023-08-02T05:15:19.921Z,46.38
2023-08-02T05:17:46.480Z,46.36
2023-08-02T05:20:13.034Z,46.16
2023-08-02T05:22:39.465Z,46.11
2023-08-02T05:25:07.614Z,46.41
2023-08-02T05:27:34.011Z,46.41
2023-08-02T05:30:00.586Z,46.10
2023-08-02T05:32:27.099Z,46.30
2023-08-02T05:34:53.539Z,46.49
2023-08-02T05:37:21.525Z,46.17
2023-08-02T05:39:47.991Z,46.32
2023-08-02T05:42:14.489Z,46.45
2023-08-02T05:44:40.944Z,46.26
2023-08-02T05:47:07.427Z,46.23
2023-08-02T05:49:33.813Z,46.29
2023-08-02T05:52:00.234Z,46.08
2023-08-02T05:54:26.669Z,46.45
2023-08-02T05:56:53.091Z,46.24
2023-08-02T05:59:19.507Z,46.58
2023-08-02T06:01:46.322Z,46.43
2023-08-02T06:04:13.013Z,46.49
2023-08-02T06:06:39.597Z,46.41
2023-08-02T06:09:08.067Z,46.39
2023-08-02T06:11:36.190Z,46.25
2023-08-02T06:14:02.619Z,46.51
2023-08-02T06:16:29.085Z,46.36
2023-08-02T06:18:55.486Z,46.43
2023-08-02T06:21:24.055Z,46.34
2023-08-02T06:23:51.085Z,46.41
2023-08-02T06:26:19.431Z,46.70
2023-08-02T06:28:46.030Z,46.67
2023-08-02T06:31:12.500Z,46.67
2023-08-02T06:33:38.987Z,46.53
2023-08-02T06:36:05.832Z,46.78
2023-08-02T06:38:33.600Z,46.81
2023-08-02T06:41:00.071Z,46.48
2023-08-02T06:43:26.514Z,46.76
2023-08-02T06:45:52.947Z,46.51
2023-08-02T06:48:20.386Z,46.53
2023-08-02T06:50:47.206Z,46.61
2023-08-02T06:53:13.686Z,46.83
2023-08-02T06:55:40.098Z,46.80
2023-08-02T06:58:06.519Z,46.78
2023-08-02T07:00:34.245Z,46.75
2023-08-02T07:03:01.509Z,46.49
2023-08-02T07:05:30.395Z,46.49
2023-08-02T07:07:57.755Z,46.85
2023-08-02T07:10:25.164Z,46.83
2023-08-02T07:12:51.589Z,46.49
2023-08-02T07:15:18.581Z,46.68
2023-08-02T07:17:45.537Z,46.70
2023-08-02T07:20:12.807Z,47.03
2023-08-02T07:22:43.934Z,47.07
2023-08-02T07:25:10.818Z,47.02
2023-08-02T07:27:38.033Z,46.97
2023-08-02T07:30:04.828Z,47.15
2023-08-02T07:32:34.087Z,47.30
2023-08-02T07:35:00.645Z,47.14
2023-08-02T07:37:27.281Z,47.00
2023-08-02T07:39:53.876Z,47.00
2023-08-02T07:42:20.361Z,47.24
2023-08-02T07:45:01.124Z,47.38
2023-08-02T07:47:27.550Z,47.09
2023-08-02T07:49:54.042Z,47.03
2023-08-02T07:52:20.511Z,47.08
2023-08-02T07:54:55.920Z,47.16
2023-08-02T07:57:26.787Z,47.39
2023-08-02T07:59:53.530Z,47.42
2023-08-02T08:02:20.689Z,47.35
2023-08-02T08:04:47.201Z,47.38
2023-08-02T08:07:13.939Z,47.32
2023-08-02T08:09:40.362Z,47.58
2023-08-02T08:12:07.134Z,47.63
2023-08-02T08:14:34.210Z,47.64
2023-08-02T08:17:01.559Z,47.38
2023-08-02T08:19:28.387Z,47.77
2023-08-02T08:21:55.380Z,47.64
2023-08-02T08:24:21.887Z,47.35
2023-08-02T08:26:48.354Z,47.65
2023-08-02T08:29:14.832Z,47.42
2023-08-02T08:31:43.973Z,47.63
2023-08-02T08:34:11.431Z,47.73
2023-08-02T08:36:37.933Z,47.72
2023-08-02T08:39:04.769Z,47.86
2023-08-02T08:41:31.310Z,47.80
2023-08-02T08:43:58.064Z,48.06
2023-08-02T08:46:25.425Z,47.85
2023-08-02T08:48:51.917Z,48.22
2023-08-02T08:51:21.255Z,47.88
2023-08-02T08:53:49.065Z,48.15
2023-08-02T08:56:15.727Z,48.22
2023-08-02T08:58:42.514Z,48.00
2023-08-02T09:01:09.168Z,48.08
2023-08-02T09:03:35.808Z,48.16
2023-08-02T09:06:03.320Z,47.97
2023-08-02T09:08:30.375Z,47.96
2023-08-02T09:10:56.770Z,48.44
2023-08-02T09:13:23.992Z,48.34
2023-08-02T09:16:10.207Z,48.58
2023-08-02T09:18:43.764Z,48.37
2023-08-02T09:21:12.192Z,48.27
2023-08-02T09:23:38.732Z,48.35
2023-08-02T09:26:10.636Z,48.44
2023-08-02T09:28:37.551Z,48.71
2023-08-02T09:31:16.828Z,48.57
2023-08-02T09:33:50.620Z,48.65
2023-08-02T09:36:27.903Z,48.33
2023-08-02T09:38:55.198Z,48.40
2023-08-02T09:41:47.984Z,48.51
2023-08-02T09:44:09.850Z,48.43
2023-08-02T09:46:37.043Z,49.10
2023-08-02T09:49:17.123Z,49.99
2023-08-02T09:51:45.046Z,50.86
2023-08-02T09:54:12.603Z,53.62
2023-08-02T09:56:39.956Z,56.07
2023-08-02T09:59:06.988Z,54.76
2023-08-02T10:01:34.288Z,55.30
2023-08-02T10:04:03.256Z,54.85
2023-08-02T10:06:32.594Z,54.24
2023-08-02T10:09:01.578Z,53.73
2023-08-02T10:11:28.499Z,53.54
2023-08-02T10:13:55.989Z,53.68
2023-08-02T10:16:24.655Z,53.31
2023-08-02T10:18:52.328Z,53.28
2023-08-02T10:21:19.692Z,53.28
2023-08-02T10:23:46.665Z,52.87
2023-08-02T10:26:13.161Z,53.05
2023-08-02T10:28:41.962Z,52.62
2023-08-02T10:31:10.110Z,53.15
2023-08-02T10:33:36.871Z,52.94
2023-08-02T10:36:03.934Z,52.54
2023-08-02T10:38:39.502Z,52.86
2023-08-02T10:41:16.561Z,52.66
2023-08-02T10:43:55.338Z,52.57
2023-08-02T10:46:24.095Z,52.25
2023-08-02T10:48:50.668Z,52.05
2023-08-02T10:51:33.993Z,52.36
2023-08-02T10:54:17.113Z,52.32
2023-08-02T10:56:52.839Z,52.17
2023-08-02T10:59:37.027Z,51.87
2023-08-02T11:02:08.288Z,51.79
2023-08-02T11:04:38.983Z,51.77
2023-08-02T11:07:36.120Z,51.59
2023-08-02T11:10:05.388Z,51.71
2023-08-02T11:12:33.266Z,51.28
2023-08-02T11:14:59.733Z,51.35
2023-08-02T11:22:26.998Z,51.01
2023-08-02T11:24:57.684Z,50.72
2023-08-02T11:27:25.196Z,50.85
2023-08-02T11:30:01.833Z,50.61
2023-08-02T11:32:28.607Z,51.03
2023-08-02T11:34:55.321Z,50.84
2023-08-02T11:37:21.858Z,50.87
2023-08-02T11:42:25.209Z,50.65
2023-08-02T11:44:59.154Z,50.67
2023-08-02T11:47:39.370Z,50.17
2023-08-02T11:50:06.210Z,49.98
2023-08-02T11:52:33.427Z,50.43
2023-08-02T11:55:00.689Z,50.53
2023-08-02T11:57:27.601Z,50.68
2023-08-02T11:59:56.907Z,50.46
2023-08-02T12:02:30.540Z,50.70
2023-08-02T12:04:57.286Z,50.91
2023-08-02T12:07:30.955Z,50.52
2023-08-02T12:09:57.518Z,50.46
2023-08-02T12:12:30.092Z,50.33
2023-08-02T12:14:56.870Z,50.15
2023-08-02T12:17:23.768Z,50.10
2023-08-02T12:19:50.561Z,49.90
2023-08-02T12:22:18.177Z,50.13
2023-08-02T12:24:44.691Z,49.79
2023-08-02T12:27:18.236Z,50.03
2023-08-02T12:29:45.285Z,50.28
2023-08-02T12:32:24.004Z,50.20
2023-08-02T12:34:57.880Z,49.97
2023-08-02T12:37:28.445Z,50.46
2023-08-02T12:39:55.044Z,50.33
2023-08-02T12:42:21.660Z,50.35
2023-08-02T12:44:48.102Z,50.32
2023-08-02T12:47:14.693Z,50.23
2023-08-02T12:49:41.161Z,50.30
2023-08-02T12:52:07.672Z,50.08
2023-08-02T12:54:34.280Z,49.67
2023-08-02T12:57:00.845Z,50.19
2023-08-02T12:59:27.262Z,49.81
2023-08-02T13:01:53.776Z,50.11
2023-08-02T13:04:20.374Z,50.12
2023-08-02T13:06:55.359Z,50.10
2023-08-02T13:09:22.606Z,49.88
2023-08-02T13:11:49.076Z,49.99
2023-08-02T13:14:15.522Z,49.77
2023-08-02T13:16:42.232Z,49.78
2023-08-02T13:19:08.735Z,49.88
2023-08-02T13:21:35.179Z,49.82
2023-08-02T13:24:01.604Z,49.93
2023-08-02T13:26:28.026Z,49.65
2023-08-02T13:28:54.503Z,49.73
2023-08-02T13:31:21.000Z,49.38
2023-08-02T13:33:47.664Z,49.77
2023-08-02T13:36:14.135Z,49.61
2023-08-02T13:38:40.646Z,49.35
2023-08-02T13:41:07.086Z,49.58
2023-08-02T13:43:33.486Z,49.65
2023-08-02T13:45:59.954Z,49.39
2023-08-02T13:48:26.405Z,49.31
2023-08-02T13:50:52.798Z,49.38
2023-08-02T13:53:19.308Z,49.35
2023-08-02T13:55:45.748Z,49.38
2023-08-02T13:58:12.189Z,49.37
2023-08-02T14:00:38.628Z,49.19
2023-08-02T14:03:05.118Z,49.20
2023-08-02T14:05:31.634Z,49.27
2023-08-02T14:07:58.208Z,49.32
2023-08-02T14:10:24.695Z,49.36
2023-08-02T14:12:51.129Z,49.20
2023-08-02T14:15:17.505Z,49.37
2023-08-02T14:17:43.997Z,49.19
2023-08-02T14:20:10.690Z,49.04
2023-08-02T14:22:37.112Z,49.40
2023-08-02T14:25:03.764Z,49.33
2023-08-02T14:27:30.263Z,49.07
2023-08-02T14:29:56.720Z,49.09
2023-08-02T14:32:23.099Z,49.16
2023-08-02T14:34:49.922Z,49.03
2023-08-02T14:37:16.342Z,48.74
2023-08-02T14:39:42.864Z,48.79
2023-08-02T14:42:09.309Z,48.61
2023-08-02T14:44:35.753Z,48.57
2023-08-02T14:47:02.312Z,48.28
2023-08-02T14:49:28.839Z,48.14
2023-08-02T14:51:55.605Z,48.05
2023-08-02T14:54:22.048Z,47.89
2023-08-02T14:56:48.592Z,47.68
2023-08-02T14:59:14.989Z,47.44
2023-08-02T15:01:41.532Z,47.26
2023-08-02T15:04:08.792Z,47.09
2023-08-02T15:06:35.259Z,46.90
2023-08-02T15:09:01.680Z,47.00
2023-08-02T15:11:28.182Z,46.59
2023-08-02T15:13:54.576Z,46.80
2023-08-02T15:16:21.043Z,46.60
2023-08-02T15:18:47.623Z,46.46
2023-08-02T15:21:14.024Z,46.48
2023-08-02T15:23:40.415Z,46.34
2023-08-02T15:26:08.266Z,46.10
2023-08-02T15:28:34.700Z,46.05
2023-08-02T15:31:01.259Z,46.05
2023-08-02T15:33:27.851Z,46.01
2023-08-02T15:35:54.292Z,46.11
2023-08-02T15:38:20.721Z,45.93
2023-08-02T15:40:47.520Z,45.82
2023-08-02T15:43:13.993Z,45.83
2023-08-02T15:45:40.527Z,45.72
2023-08-02T15:48:06.982Z,45.56
2023-08-02T15:50:34.724Z,45.83
2023-08-02T15:53:01.149Z,45.70
2023-08-02T15:55:27.612Z,45.51
2023-08-02T15:57:54.010Z,45.36
2023-08-02T16:00:20.490Z,45.47
2023-08-02T16:02:47.035Z,45.50
2023-08-02T16:05:17.002Z,45.44
2023-08-02T16:07:43.438Z,45.43
2023-08-02T16:10:10.027Z,45.32
2023-08-02T16:12:36.473Z,45.22
2023-08-02T16:15:03.024Z,45.10
2023-08-02T16:17:29.473Z,45.11
2023-08-02T16:19:56.000Z,45.28
2023-08-02T16:22:22.410Z,45.37
2023-08-02T16:24:49.723Z,45.44
2023-08-02T16:27:16.125Z,45.42
2023-08-02T16:29:42.762Z,45.51
2023-08-02T16:32:09.197Z,45.57
2023-08-02T16:34:35.610Z,45.59
2023-08-02T16:37:02.417Z,45.44
2023-08-02T16:39:28.818Z,45.62
2023-08-02T16:41:55.269Z,45.29
2023-08-02T16:44:21.696Z,45.12
2023-08-02T16:46:48.137Z,44.93
2023-08-02T16:49:14.604Z,44.87
2023-08-02T16:51:41.295Z,44.89
2023-08-02T16:54:08.146Z,44.44
2023-08-02T16:56:34.634Z,44.64
2023-08-02T16:59:01.079Z,44.79
2023-08-02T17:01:27.559Z,44.68
2023-08-02T17:03:54.199Z,44.70
2023-08-02T17:06:20.749Z,44.45
2023-08-02T17:08:47.331Z,44.56
2023-08-02T17:11:13.754Z,44.49
2023-08-02T17:13:40.168Z,44.45
2023-08-02T17:16:06.702Z,44.32
2023-08-02T17:18:33.112Z,44.52
2023-08-02T17:20:59.635Z,44.16
2023-08-02T17:23:26.051Z,44.41
2023-08-02T17:25:52.517Z,44.19
2023-08-02T17:28:18.948Z,44.36
2023-08-02T17:30:46.683Z,44.27
2023-08-02T17:33:13.209Z,44.32
2023-08-02T17:35:39.692Z,44.35
2023-08-02T17:38:06.217Z,44.59
2023-08-02T17:40:32.672Z,44.67
2023-08-02T17:42:59.500Z,44.71
2023-08-02T17:45:27.599Z,45.12
2023-08-02T17:47:55.238Z,45.27
2023-08-02T17:50:21.759Z,45.37
2023-08-02T17:52:48.273Z,45.48
2023-08-02T17:55:14.740Z,45.50
2023-08-02T17:57:41.330Z,45.63
2023-08-02T18:00:09.008Z,45.51
2023-08-02T18:02:35.595Z,45.80
2023-08-02T18:05:02.004Z,45.99
2023-08-02T18:07:28.458Z,45.93
2023-08-02T18:09:54.857Z,46.08
2023-08-02T18:12:21.273Z,46.22
2023-08-02T18:14:47.711Z,46.24
2023-08-02T18:17:14.255Z,46.44
2023-08-02T18:19:40.785Z,46.46
2023-08-02T18:22:07.247Z,46.51
2023-08-02T18:24:38.729Z,46.52
2023-08-02T18:27:06.014Z,46.59
2023-08-02T18:29:32.480Z,46.83
2023-08-02T18:31:58.940Z,46.90
2023-08-02T18:34:25.446Z,46.66
2023-08-02T18:36:51.876Z,46.96
2023-08-02T18:39:18.349Z,46.77
2023-08-02T18:41:45.117Z,46.89
2023-08-02T18:44:11.965Z,46.77
2023-08-02T18:46:38.903Z,47.00
2023-08-02T18:49:05.461Z,46.97
2023-08-02T18:51:31.887Z,46.99
2023-08-02T18:53:58.366Z,47.07
2023-08-02T18:56:25.449Z,47.04
2023-08-02T18:58:53.028Z,47.12
2023-08-02T19:01:19.681Z,47.25
2023-08-02T19:03:46.372Z,47.16
2023-08-02T19:06:14.753Z,47.17
2023-08-02T19:08:44.855Z,47.34
2023-08-02T19:11:23.023Z,47.17
2023-08-02T19:13:50.032Z,47.03
2023-08-02T19:16:16.672Z,47.28
2023-08-02T19:18:43.649Z,47.42
2023-08-02T19:21:13.265Z,47.21
2023-08-02T19:23:42.397Z,47.17
2023-08-02T19:26:10.952Z,47.37
2023-08-02T19:28:37.394Z,47.14
2023-08-02T19:31:03.922Z,47.42
2023-08-02T19:33:32.124Z,47.10
2023-08-02T19:35:58.610Z,47.39
2023-08-02T19:38:25.103Z,47.39
2023-08-02T19:40:52.414Z,47.52
2023-08-02T19:43:18.863Z,47.19
2023-08-02T19:45:45.299Z,47.43
2023-08-02T19:48:11.733Z,47.31
2023-08-02T19:50:39.590Z,47.29
2023-08-02T19:53:13.054Z,47.43
2023-08-02T19:55:39.454Z,47.36
2023-08-02T19:58:06.936Z,47.52
2023-08-02T20:00:33.717Z,47.61
2023-08-02T20:03:00.209Z,47.59
2023-08-02T20:05:45.379Z,47.69
2023-08-02T20:08:14.731Z,47.39
2023-08-02T20:10:41.267Z,47.45
2023-08-02T20:13:13.916Z,47.57
2023-08-02T20:15:40.455Z,47.53
2023-08-02T20:18:08.830Z,47.61
2023-08-02T20:20:38.207Z,47.72
2023-08-02T20:23:06.490Z,47.65
2023-08-02T20:25:33.103Z,47.34
2023-08-02T20:27:59.586Z,47.48
2023-08-02T20:30:26.191Z,47.53
2023-08-02T20:32:54.622Z,47.16
2023-08-02T20:35:21.276Z,47.56
2023-08-02T20:37:47.796Z,47.38
2023-08-02T20:40:14.245Z,47.17
2023-08-02T20:42:40.681Z,47.41
2023-08-02T20:45:11.864Z,47.61
2023-08-02T20:47:38.636Z,47.91
2023-08-02T20:50:12.685Z,47.84
2023-08-02T20:52:42.333Z,47.56
2023-08-02T20:55:09.627Z,47.62
2023-08-02T20:57:36.108Z,47.81
2023-08-02T21:00:06.559Z,47.91
2023-08-02T21:02:33.182Z,47.87
2023-08-02T21:04:59.650Z,47.58
2023-08-02T21:07:26.698Z,47.73
2023-08-02T21:09:56.018Z,47.53
2023-08-02T21:12:22.498Z,47.53
2023-08-02T21:14:49.875Z,47.42
2023-08-02T21:17:18.365Z,47.63
2023-08-02T21:19:44.857Z,47.56
2023-08-02T21:22:11.584Z,47.70
2023-08-02T21:24:38.290Z,47.59
2023-08-02T21:27:06.909Z,47.47
2023-08-02T21:29:34.528Z,47.62
2023-08-02T21:32:04.385Z,47.56
2023-08-02T21:34:30.927Z,47.79
2023-08-02T21:36:57.337Z,47.55
2023-08-02T21:39:23.713Z,47.42
2023-08-02T21:41:50.127Z,47.49
2023-08-02T21:44:18.212Z,47.47
2023-08-02T21:46:45.875Z,47.58
2023-08-02T21:49:13.728Z,47.55
2023-08-02T21:51:40.608Z,47.60
2023-08-02T21:54:07.078Z,47.74
2023-08-02T21:56:33.586Z,47.66
2023-08-02T21:59:01.361Z,47.74
2023-08-02T22:01:30.357Z,47.68
2023-08-02T22:03:57.404Z,47.38
2023-08-02T22:06:25.357Z,47.61
2023-08-02T22:08:52.737Z,47.49
2023-08-02T22:11:21.008Z,47.53
2023-08-02T22:13:48.217Z,47.71
2023-08-02T22:16:16.815Z,47.79
2023-08-02T22:18:43.840Z,47.78
2023-08-02T22:21:10.703Z,47.70
2023-08-02T22:23:37.137Z,47.50
2023-08-02T22:26:04.994Z,47.70
2023-08-02T22:28:31.827Z,47.71
2023-08-02T22:30:58.222Z,47.42
2023-08-02T22:33:24.663Z,47.67
2023-08-02T22:35:51.117Z,47.81
2023-08-02T22:38:17.518Z,47.79
2023-08-02T22:40:46.334Z,47.80
2023-08-02T22:43:13.039Z,47.60
2023-08-02T22:45:39.539Z,47.61
2023-08-02T22:48:29.663Z,47.87
2023-08-02T22:50:55.799Z,47.87
2023-08-02T22:53:23.036Z,47.72
2023-08-02T22:55:49.471Z,47.79
2023-08-02T22:58:15.861Z,47.78
2023-08-02T23:00:42.343Z,47.87
2023-08-02T23:03:26.004Z,47.96
2023-08-02T23:05:55.033Z,48.00
2023-08-02T23:08:21.834Z,47.88
2023-08-02T23:10:48.266Z,47.85
2023-08-02T23:13:23.381Z,48.10
2023-08-02T23:15:49.835Z,47.90
2023-08-02T23:18:17.945Z,48.05
2023-08-02T23:20:45.495Z,48.02
2023-08-02T23:23:21.183Z,47.89
2023-08-02T23:25:48.267Z,48.05
2023-08-02T23:28:15.690Z,48.10
2023-08-02T23:30:42.185Z,48.17
2023-08-02T23:33:12.341Z,48.32
2023-08-02T23:35:39.400Z,48.21
2023-08-02T23:38:06.060Z,48.17
2023-08-02T23:40:33.038Z,48.16
2023-08-02T23:42:59.562Z,48.28
2023-08-02T23:45:26.028Z,48.35
2023-08-02T23:47:52.505Z,48.38
2023-08-02T23:50:18.986Z,48.10
2023-08-02T23:52:45.450Z,48.29
2023-08-02T23:55:11.921Z,48.39
2023-08-02T23:57:38.354Z,48.15
